sensor_id;sensor_type;location;lat;lon;timestamp;pressure;altitude;pressure_sealevel;temperature;humidity
11499;BME280;5806;48.748;9.278;2024-03-02T00:00:39;99539.13;;;8.69;69.80
11499;BME280;5806;48.748;9.278;2024-03-02T00:03:09;99524.38;;;8.65;69.65
11499;BME280;5806;48.748;9.278;2024-03-02T00:05:37;99521.37;;;8.64;69.92
11499;BME280;5806;48.748;9.278;2024-03-02T00:08:05;99524.34;;;8.63;69.96
11499;BME280;5806;48.748;9.278;2024-03-02T00:10:40;99515.12;;;8.64;69.54
11499;BME280;5806;48.748;9.278;2024-03-02T00:13:09;99523.80;;;8.61;69.72
11499;BME280;5806;48.748;9.278;2024-03-02T00:15:42;99514.56;;;8.64;69.55
11499;BME280;5806;48.748;9.278;2024-03-02T00:18:12;99505.89;;;8.70;69.21
11499;BME280;5806;48.748;9.278;2024-03-02T00:20:40;99502.86;;;8.64;69.46
11499;BME280;5806;48.748;9.278;2024-03-02T00:23:09;99518.39;;;8.66;69.81
11499;BME280;5806;48.748;9.278;2024-03-02T00:25:44;99517.61;;;8.68;69.61
11499;BME280;5806;48.748;9.278;2024-03-02T00:28:36;99507.59;;;8.76;69.37
11499;BME280;5806;48.748;9.278;2024-03-02T00:31:13;99501.05;;;8.77;69.14
11499;BME280;5806;48.748;9.278;2024-03-02T00:33:43;99508.38;;;8.74;69.33
11499;BME280;5806;48.748;9.278;2024-03-02T00:36:12;99499.19;;;8.82;68.59
11499;BME280;5806;48.748;9.278;2024-03-02T00:38:44;99504.98;;;8.93;68.47
11499;BME280;5806;48.748;9.278;2024-03-02T00:41:23;99500.61;;;8.90;68.67
11499;BME280;5806;48.748;9.278;2024-03-02T00:44:09;99490.84;;;8.99;68.17
11499;BME280;5806;48.748;9.278;2024-03-02T00:46:39;99482.14;;;8.99;67.97
11499;BME280;5806;48.748;9.278;2024-03-02T00:49:24;99473.11;;;8.96;68.26
11499;BME280;5806;48.748;9.278;2024-03-02T00:51:54;99480.21;;;9.00;67.58
11499;BME280;5806;48.748;9.278;2024-03-02T00:54:25;99475.08;;;9.03;67.69
11499;BME280;5806;48.748;9.278;2024-03-02T00:56:53;99475.92;;;9.06;67.78
11499;BME280;5806;48.748;9.278;2024-03-02T00:59:23;99474.59;;;9.11;67.41
11499;BME280;5806;48.748;9.278;2024-03-02T01:01:51;99470.80;;;9.17;67.69
11499;BME280;5806;48.748;9.278;2024-03-02T01:04:19;99478.70;;;9.16;67.09
11499;BME280;5806;48.748;9.278;2024-03-02T01:06:46;99480.39;;;9.22;66.92
11499;BME280;5806;48.748;9.278;2024-03-02T01:09:14;99475.72;;;9.18;66.78
11499;BME280;5806;48.748;9.278;2024-03-02T01:11:43;99473.59;;;9.25;66.71
11499;BME280;5806;48.748;9.278;2024-03-02T01:14:10;99476.47;;;9.08;66.98
11499;BME280;5806;48.748;9.278;2024-03-02T01:16:38;99474.61;;;9.16;66.95
11499;BME280;5806;48.748;9.278;2024-03-02T01:19:05;99476.23;;;9.15;66.78
11499;BME280;5806;48.748;9.278;2024-03-02T01:21:33;99478.98;;;9.20;66.82
11499;BME280;5806;48.748;9.278;2024-03-02T01:24:00;99480.58;;;9.13;66.80
11499;BME280;5806;48.748;9.278;2024-03-02T01:26:28;99473.25;;;9.16;66.53
11499;BME280;5806;48.748;9.278;2024-03-02T01:28:55;99475.19;;;9.18;66.49
11499;BME280;5806;48.748;9.278;2024-03-02T01:31:23;99477.35;;;9.19;66.25
11499;BME280;5806;48.748;9.278;2024-03-02T01:33:50;99475.70;;;9.15;66.33
11499;BME280;5806;48.748;9.278;2024-03-02T01:36:18;99460.44;;;9.17;66.13
11499;BME280;5806;48.748;9.278;2024-03-02T01:38:45;99460.18;;;9.18;65.97
11499;BME280;5806;48.748;9.278;2024-03-02T01:41:13;99460.98;;;9.19;65.56
11499;BME280;5806;48.748;9.278;2024-03-02T01:43:40;99464.22;;;9.13;65.84
11499;BME280;5806;48.748;9.278;2024-03-02T01:46:08;99467.02;;;9.21;65.87
11499;BME280;5806;48.748;9.278;2024-03-02T01:48:36;99455.26;;;9.18;66.03
11499;BME280;5806;48.748;9.278;2024-03-02T01:51:03;99461.80;;;9.14;66.17
11499;BME280;5806;48.748;9.278;2024-03-02T01:53:33;99460.97;;;9.16;65.72
11499;BME280;5806;48.748;9.278;2024-03-02T01:56:01;99453.53;;;9.04;66.08
11499;BME280;5806;48.748;9.278;2024-03-02T01:58:30;99445.44;;;9.17;65.65
11499;BME280;5806;48.748;9.278;2024-03-02T02:00:58;99453.63;;;9.17;65.24
11499;BME280;5806;48.748;9.278;2024-03-02T02:03:26;99449.56;;;9.24;65.11
11499;BME280;5806;48.748;9.278;2024-03-02T02:05:53;99445.11;;;9.11;65.74
11499;BME280;5806;48.748;9.278;2024-03-02T02:08:20;99453.57;;;9.12;65.32
11499;BME280;5806;48.748;9.278;2024-03-02T02:10:48;99452.51;;;9.13;65.89
11499;BME280;5806;48.748;9.278;2024-03-02T02:13:16;99457.45;;;9.18;65.34
11499;BME280;5806;48.748;9.278;2024-03-02T02:15:43;99454.76;;;9.26;65.13
11499;BME280;5806;48.748;9.278;2024-03-02T02:18:10;99455.30;;;9.28;65.05
11499;BME280;5806;48.748;9.278;2024-03-02T02:20:38;99449.28;;;9.21;65.02
11499;BME280;5806;48.748;9.278;2024-03-02T02:23:07;99448.48;;;9.28;65.01
11499;BME280;5806;48.748;9.278;2024-03-02T02:25:36;99453.13;;;9.25;64.96
11499;BME280;5806;48.748;9.278;2024-03-02T02:28:04;99450.14;;;9.26;65.41
11499;BME280;5806;48.748;9.278;2024-03-02T02:30:32;99450.59;;;9.16;65.20
11499;BME280;5806;48.748;9.278;2024-03-02T02:33:00;99450.39;;;9.25;64.85
11499;BME280;5806;48.748;9.278;2024-03-02T02:35:27;99450.67;;;9.26;64.60
11499;BME280;5806;48.748;9.278;2024-03-02T02:37:56;99446.56;;;9.23;64.97
11499;BME280;5806;48.748;9.278;2024-03-02T02:40:25;99450.91;;;9.19;64.89
11499;BME280;5806;48.748;9.278;2024-03-02T02:42:53;99448.11;;;9.12;65.04
11499;BME280;5806;48.748;9.278;2024-03-02T02:45:20;99443.56;;;9.22;64.96
11499;BME280;5806;48.748;9.278;2024-03-02T02:47:48;99445.44;;;9.17;64.95
11499;BME280;5806;48.748;9.278;2024-03-02T02:50:16;99445.20;;;9.23;64.85
11499;BME280;5806;48.748;9.278;2024-03-02T02:52:43;99451.45;;;9.21;65.10
11499;BME280;5806;48.748;9.278;2024-03-02T02:55:12;99440.50;;;9.14;65.31
11499;BME280;5806;48.748;9.278;2024-03-02T02:57:42;99439.73;;;9.21;65.39
11499;BME280;5806;48.748;9.278;2024-03-02T03:00:12;99433.95;;;9.15;65.11
11499;BME280;5806;48.748;9.278;2024-03-02T03:02:46;99445.71;;;9.18;65.20
11499;BME280;5806;48.748;9.278;2024-03-02T03:05:15;99438.88;;;9.15;65.25
11499;BME280;5806;48.748;9.278;2024-03-02T03:07:43;99443.77;;;9.16;65.99
11499;BME280;5806;48.748;9.278;2024-03-02T03:10:11;99439.93;;;9.12;65.72
11499;BME280;5806;48.748;9.278;2024-03-02T03:12:39;99443.50;;;9.15;65.65
11499;BME280;5806;48.748;9.278;2024-03-02T03:15:09;99441.58;;;9.10;65.14
11499;BME280;5806;48.748;9.278;2024-03-02T03:17:42;99445.14;;;9.16;65.26
11499;BME280;5806;48.748;9.278;2024-03-02T03:20:10;99443.00;;;9.23;65.41
11499;BME280;5806;48.748;9.278;2024-03-02T03:22:38;99448.95;;;9.12;65.18
11499;BME280;5806;48.748;9.278;2024-03-02T03:25:06;99446.80;;;9.17;65.74
11499;BME280;5806;48.748;9.278;2024-03-02T03:27:35;99446.75;;;9.12;65.08
11499;BME280;5806;48.748;9.278;2024-03-02T03:30:03;99455.78;;;9.17;65.37
11499;BME280;5806;48.748;9.278;2024-03-02T03:32:32;99450.91;;;9.19;65.12
11499;BME280;5806;48.748;9.278;2024-03-02T03:34:59;99447.67;;;9.25;65.09
11499;BME280;5806;48.748;9.278;2024-03-02T03:37:27;99449.27;;;9.18;65.14
11499;BME280;5806;48.748;9.278;2024-03-02T03:39:56;99455.62;;;9.34;64.96
11499;BME280;5806;48.748;9.278;2024-03-02T03:42:23;99455.35;;;9.33;64.84
11499;BME280;5806;48.748;9.278;2024-03-02T03:44:51;99451.76;;;9.25;65.25
11499;BME280;5806;48.748;9.278;2024-03-02T03:47:19;99461.56;;;9.21;64.62
11499;BME280;5806;48.748;9.278;2024-03-02T03:49:46;99463.18;;;9.19;65.06
11499;BME280;5806;48.748;9.278;2024-03-02T03:52:14;99464.30;;;9.23;65.29
11499;BME280;5806;48.748;9.278;2024-03-02T03:54:41;99468.32;;;9.16;65.25
11499;BME280;5806;48.748;9.278;2024-03-02T03:57:11;99465.84;;;9.12;65.54
11499;BME280;5806;48.748;9.278;2024-03-02T03:59:38;99460.48;;;9.24;64.96
11499;BME280;5806;48.748;9.278;2024-03-02T04:02:05;99469.74;;;9.21;65.48
11499;BME280;5806;48.748;9.278;2024-03-02T04:04:34;99465.05;;;9.14;65.44
11499;BME280;5806;48.748;9.278;2024-03-02T04:07:02;99467.20;;;9.12;65.74
11499;BME280;5806;48.748;9.278;2024-03-02T04:09:30;99469.36;;;9.05;65.61
11499;BME280;5806;48.748;9.278;2024-03-02T04:11:58;99470.72;;;9.02;66.49
11499;BME280;5806;48.748;9.278;2024-03-02T04:14:25;99466.56;;;8.97;66.05
11499;BME280;5806;48.748;9.278;2024-03-02T04:16:53;99466.89;;;9.03;65.57
11499;BME280;5806;48.748;9.278;2024-03-02T04:19:20;99459.25;;;9.03;65.74
11499;BME280;5806;48.748;9.278;2024-03-02T04:21:48;99458.63;;;8.93;65.81
11499;BME280;5806;48.748;9.278;2024-03-02T04:24:15;99466.22;;;8.84;66.36
11499;BME280;5806;48.748;9.278;2024-03-02T04:26:43;99471.19;;;8.92;66.15
11499;BME280;5806;48.748;9.278;2024-03-02T04:29:10;99473.58;;;8.86;66.36
11499;BME280;5806;48.748;9.278;2024-03-02T04:31:38;99477.61;;;8.76;66.72
11499;BME280;5806;48.748;9.278;2024-03-02T04:34:05;99476.76;;;8.73;67.13
11499;BME280;5806;48.748;9.278;2024-03-02T04:36:34;99476.77;;;8.75;66.94
11499;BME280;5806;48.748;9.278;2024-03-02T04:39:02;99474.28;;;8.71;67.11
11499;BME280;5806;48.748;9.278;2024-03-02T04:41:29;99480.27;;;8.71;67.12
11499;BME280;5806;48.748;9.278;2024-03-02T04:43:57;99487.86;;;8.64;67.45
11499;BME280;5806;48.748;9.278;2024-03-02T04:46:26;99490.87;;;8.67;67.28
11499;BME280;5806;48.748;9.278;2024-03-02T04:48:53;99488.92;;;8.63;67.63
11499;BME280;5806;48.748;9.278;2024-03-02T04:51:22;99498.23;;;8.69;67.26
11499;BME280;5806;48.748;9.278;2024-03-02T04:53:51;99499.23;;;8.56;68.05
11499;BME280;5806;48.748;9.278;2024-03-02T04:56:19;99493.27;;;8.61;67.80
11499;BME280;5806;48.748;9.278;2024-03-02T04:58:48;99494.95;;;8.65;67.36
11499;BME280;5806;48.748;9.278;2024-03-02T05:01:15;99503.23;;;8.48;67.71
11499;BME280;5806;48.748;9.278;2024-03-02T05:03:43;99500.38;;;8.62;67.77
11499;BME280;5806;48.748;9.278;2024-03-02T05:06:11;99499.94;;;8.44;68.12
11499;BME280;5806;48.748;9.278;2024-03-02T05:08:39;99504.53;;;8.41;68.44
11499;BME280;5806;48.748;9.278;2024-03-02T05:11:06;99503.00;;;8.52;67.90
11499;BME280;5806;48.748;9.278;2024-03-02T05:13:52;99514.45;;;8.52;68.03
11499;BME280;5806;48.748;9.278;2024-03-02T05:16:19;99515.45;;;8.43;68.32
11499;BME280;5806;48.748;9.278;2024-03-02T05:18:46;99521.13;;;8.39;68.37
11499;BME280;5806;48.748;9.278;2024-03-02T05:21:14;99520.06;;;8.43;68.53
11499;BME280;5806;48.748;9.278;2024-03-02T05:23:42;99515.84;;;8.28;69.48
11499;BME280;5806;48.748;9.278;2024-03-02T05:26:10;99511.58;;;8.37;68.98
11499;BME280;5806;48.748;9.278;2024-03-02T05:28:39;99518.88;;;8.31;68.69
11499;BME280;5806;48.748;9.278;2024-03-02T05:31:09;99513.48;;;8.39;68.77
11499;BME280;5806;48.748;9.278;2024-03-02T05:33:37;99515.31;;;8.31;68.95
11499;BME280;5806;48.748;9.278;2024-03-02T05:36:05;99514.78;;;8.31;68.79
11499;BME280;5806;48.748;9.278;2024-03-02T05:38:35;99505.48;;;8.27;68.87
11499;BME280;5806;48.748;9.278;2024-03-02T05:41:02;99504.09;;;8.25;69.04
11499;BME280;5806;48.748;9.278;2024-03-02T05:43:31;99498.27;;;8.19;69.25
11499;BME280;5806;48.748;9.278;2024-03-02T05:45:59;99503.27;;;8.03;70.08
11499;BME280;5806;48.748;9.278;2024-03-02T05:48:26;99497.77;;;7.98;69.95
11499;BME280;5806;48.748;9.278;2024-03-02T05:50:54;99499.60;;;8.16;69.56
11499;BME280;5806;48.748;9.278;2024-03-02T05:53:21;99502.51;;;8.07;70.17
11499;BME280;5806;48.748;9.278;2024-03-02T05:55:49;99496.58;;;8.13;69.67
11499;BME280;5806;48.748;9.278;2024-03-02T05:58:18;99501.22;;;8.15;69.62
11499;BME280;5806;48.748;9.278;2024-03-02T06:00:59;99497.06;;;8.07;69.95
11499;BME280;5806;48.748;9.278;2024-03-02T06:03:27;99497.79;;;8.00;70.17
11499;BME280;5806;48.748;9.278;2024-03-02T06:05:55;99496.30;;;8.12;69.70
11499;BME280;5806;48.748;9.278;2024-03-02T06:08:22;99487.48;;;8.02;70.23
11499;BME280;5806;48.748;9.278;2024-03-02T06:10:52;99493.13;;;7.96;70.57
11499;BME280;5806;48.748;9.278;2024-03-02T06:13:20;99496.05;;;7.89;70.70
11499;BME280;5806;48.748;9.278;2024-03-02T06:15:47;99495.63;;;8.00;70.22
11499;BME280;5806;48.748;9.278;2024-03-02T06:18:15;99505.20;;;8.05;70.05
11499;BME280;5806;48.748;9.278;2024-03-02T06:20:42;99501.07;;;8.00;70.68
11499;BME280;5806;48.748;9.278;2024-03-02T06:23:10;99501.88;;;8.00;70.37
11499;BME280;5806;48.748;9.278;2024-03-02T06:25:37;99512.11;;;8.15;69.97
11499;BME280;5806;48.748;9.278;2024-03-02T06:28:05;99515.01;;;8.06;70.32
11499;BME280;5806;48.748;9.278;2024-03-02T06:30:33;99513.87;;;8.23;69.92
11499;BME280;5806;48.748;9.278;2024-03-02T06:33:01;99519.50;;;8.17;70.05
11499;BME280;5806;48.748;9.278;2024-03-02T06:35:30;99516.67;;;8.31;69.76
11499;BME280;5806;48.748;9.278;2024-03-02T06:37:57;99519.20;;;8.13;70.20
11499;BME280;5806;48.748;9.278;2024-03-02T06:40:24;99521.80;;;8.25;69.93
11499;BME280;5806;48.748;9.278;2024-03-02T06:42:52;99527.14;;;8.17;70.26
11499;BME280;5806;48.748;9.278;2024-03-02T06:45:20;99527.09;;;8.36;69.92
11499;BME280;5806;48.748;9.278;2024-03-02T06:47:47;99532.48;;;8.31;70.02
11499;BME280;5806;48.748;9.278;2024-03-02T06:50:14;99533.58;;;8.30;70.09
11499;BME280;5806;48.748;9.278;2024-03-02T06:52:42;99528.91;;;8.28;69.84
11499;BME280;5806;48.748;9.278;2024-03-02T06:55:10;99534.13;;;8.32;69.72
11499;BME280;5806;48.748;9.278;2024-03-02T06:57:37;99535.82;;;8.36;69.53
11499;BME280;5806;48.748;9.278;2024-03-02T07:00:07;99538.98;;;8.25;70.11
11499;BME280;5806;48.748;9.278;2024-03-02T07:02:35;99536.95;;;8.40;69.72
11499;BME280;5806;48.748;9.278;2024-03-02T07:05:03;99540.45;;;8.38;70.12
11499;BME280;5806;48.748;9.278;2024-03-02T07:07:33;99543.09;;;8.28;70.15
11499;BME280;5806;48.748;9.278;2024-03-02T07:10:01;99533.67;;;8.40;69.82
11499;BME280;5806;48.748;9.278;2024-03-02T07:12:29;99532.33;;;8.43;69.60
11499;BME280;5806;48.748;9.278;2024-03-02T07:14:58;99533.14;;;8.41;69.51
11499;BME280;5806;48.748;9.278;2024-03-02T07:17:31;99534.56;;;8.48;69.26
11499;BME280;5806;48.748;9.278;2024-03-02T07:19:59;99534.30;;;8.47;69.36
11499;BME280;5806;48.748;9.278;2024-03-02T07:22:26;99548.75;;;8.48;69.62
11499;BME280;5806;48.748;9.278;2024-03-02T07:24:54;99550.39;;;8.49;69.68
11499;BME280;5806;48.748;9.278;2024-03-02T07:27:22;99560.57;;;8.58;69.38
11499;BME280;5806;48.748;9.278;2024-03-02T07:29:49;99560.91;;;8.67;69.12
11499;BME280;5806;48.748;9.278;2024-03-02T07:32:17;99558.44;;;8.65;69.13
11499;BME280;5806;48.748;9.278;2024-03-02T07:34:44;99563.89;;;8.65;69.57
11499;BME280;5806;48.748;9.278;2024-03-02T07:37:12;99566.73;;;8.75;69.01
11499;BME280;5806;48.748;9.278;2024-03-02T07:39:39;99567.98;;;8.92;68.21
11499;BME280;5806;48.748;9.278;2024-03-02T07:42:07;99565.92;;;9.06;68.51
11499;BME280;5806;48.748;9.278;2024-03-02T07:44:34;99576.44;;;9.27;67.54
11499;BME280;5806;48.748;9.278;2024-03-02T07:47:02;99568.86;;;9.34;67.31
11499;BME280;5806;48.748;9.278;2024-03-02T07:49:30;99576.61;;;9.52;66.82
11499;BME280;5806;48.748;9.278;2024-03-02T07:51:57;99570.38;;;9.59;66.55
11499;BME280;5806;48.748;9.278;2024-03-02T07:54:25;99553.20;;;9.58;65.92
11499;BME280;5806;48.748;9.278;2024-03-02T07:56:52;99558.17;;;9.69;65.47
11499;BME280;5806;48.748;9.278;2024-03-02T07:59:19;99561.19;;;9.72;66.09
11499;BME280;5806;48.748;9.278;2024-03-02T08:01:49;99555.75;;;9.77;64.98
11499;BME280;5806;48.748;9.278;2024-03-02T08:04:17;99556.23;;;9.64;65.32
11499;BME280;5806;48.748;9.278;2024-03-02T08:06:45;99550.84;;;9.77;64.95
11499;BME280;5806;48.748;9.278;2024-03-02T08:09:13;99563.41;;;9.78;65.28
11499;BME280;5806;48.748;9.278;2024-03-02T08:11:41;99564.80;;;9.88;64.68
11499;BME280;5806;48.748;9.278;2024-03-02T08:14:08;99566.30;;;10.05;64.31
11499;BME280;5806;48.748;9.278;2024-03-02T08:16:35;99572.22;;;9.92;64.49
11499;BME280;5806;48.748;9.278;2024-03-02T08:19:03;99570.62;;;10.04;63.97
11499;BME280;5806;48.748;9.278;2024-03-02T08:21:30;99569.88;;;10.13;63.52
11499;BME280;5806;48.748;9.278;2024-03-02T08:23:58;99580.55;;;10.20;63.89
11499;BME280;5806;48.748;9.278;2024-03-02T08:26:25;99569.04;;;10.10;63.66
11499;BME280;5806;48.748;9.278;2024-03-02T08:28:55;99570.41;;;10.10;63.67
11499;BME280;5806;48.748;9.278;2024-03-02T08:31:22;99580.81;;;10.16;63.57
11499;BME280;5806;48.748;9.278;2024-03-02T08:33:49;99582.22;;;10.21;63.30
11499;BME280;5806;48.748;9.278;2024-03-02T08:36:17;99584.98;;;10.34;64.09
11499;BME280;5806;48.748;9.278;2024-03-02T08:38:46;99585.05;;;10.51;63.87
11499;BME280;5806;48.748;9.278;2024-03-02T08:41:13;99580.94;;;10.51;63.07
11499;BME280;5806;48.748;9.278;2024-03-02T08:43:42;99581.48;;;10.53;63.54
11499;BME280;5806;48.748;9.278;2024-03-02T08:46:10;99585.31;;;10.55;62.99
11499;BME280;5806;48.748;9.278;2024-03-02T08:48:38;99587.20;;;10.47;62.91
11499;BME280;5806;48.748;9.278;2024-03-02T08:51:05;99580.14;;;10.56;63.05
11499;BME280;5806;48.748;9.278;2024-03-02T08:53:34;99593.30;;;10.69;63.14
11499;BME280;5806;48.748;9.278;2024-03-02T08:56:01;99589.73;;;10.71;63.12
11499;BME280;5806;48.748;9.278;2024-03-02T08:58:31;99597.94;;;10.73;62.77
11499;BME280;5806;48.748;9.278;2024-03-02T09:00:59;99585.62;;;10.71;64.35
11499;BME280;5806;48.748;9.278;2024-03-02T09:03:26;99588.09;;;10.75;63.50
11499;BME280;5806;48.748;9.278;2024-03-02T09:05:53;99590.30;;;10.83;63.40
11499;BME280;5806;48.748;9.278;2024-03-02T09:08:21;99591.43;;;10.94;62.50
11499;BME280;5806;48.748;9.278;2024-03-02T09:10:48;99588.69;;;11.04;63.45
11499;BME280;5806;48.748;9.278;2024-03-02T09:13:16;99596.89;;;11.04;62.16
11499;BME280;5806;48.748;9.278;2024-03-02T09:15:43;99592.23;;;10.97;61.50
11499;BME280;5806;48.748;9.278;2024-03-02T09:18:11;99602.37;;;11.04;62.20
11499;BME280;5806;48.748;9.278;2024-03-02T09:20:38;99601.27;;;11.00;61.80
11499;BME280;5806;48.748;9.278;2024-03-02T09:23:06;99600.73;;;11.08;62.44
11499;BME280;5806;48.748;9.278;2024-03-02T09:25:33;99587.05;;;11.03;62.08
11499;BME280;5806;48.748;9.278;2024-03-02T09:28:00;99592.81;;;11.19;62.20
11499;BME280;5806;48.748;9.278;2024-03-02T09:30:29;99591.44;;;11.19;61.54
11499;BME280;5806;48.748;9.278;2024-03-02T09:32:58;99588.97;;;11.38;61.70
11499;BME280;5806;48.748;9.278;2024-03-02T09:35:26;99591.42;;;11.29;60.74
11499;BME280;5806;48.748;9.278;2024-03-02T09:37:53;99589.52;;;11.30;60.82
11499;BME280;5806;48.748;9.278;2024-03-02T09:40:22;99585.67;;;11.36;61.49
11499;BME280;5806;48.748;9.278;2024-03-02T09:42:50;99584.04;;;11.32;60.27
11499;BME280;5806;48.748;9.278;2024-03-02T09:45:24;99594.72;;;11.36;60.58
11499;BME280;5806;48.748;9.278;2024-03-02T09:47:50;99592.25;;;11.47;60.51
11499;BME280;5806;48.748;9.278;2024-03-02T09:50:18;99604.30;;;11.51;60.54
11499;BME280;5806;48.748;9.278;2024-03-02T09:52:47;99600.48;;;11.42;61.03
11499;BME280;5806;48.748;9.278;2024-03-02T09:55:18;99609.49;;;11.55;60.53
11499;BME280;5806;48.748;9.278;2024-03-02T09:57:46;99603.45;;;11.53;60.00
11499;BME280;5806;48.748;9.278;2024-03-02T10:00:17;99595.28;;;11.63;59.92
11499;BME280;5806;48.748;9.278;2024-03-02T10:02:45;99599.92;;;11.53;59.89
11499;BME280;5806;48.748;9.278;2024-03-02T10:05:25;99590.06;;;11.42;59.90
11499;BME280;5806;48.748;9.278;2024-03-02T10:08:01;99600.48;;;11.42;59.93
11499;BME280;5806;48.748;9.278;2024-03-02T10:10:41;99590.05;;;11.57;60.14
11499;BME280;5806;48.748;9.278;2024-03-02T10:13:07;99581.84;;;11.59;60.13
11499;BME280;5806;48.748;9.278;2024-03-02T10:15:36;99580.22;;;11.63;59.29
11499;BME280;5806;48.748;9.278;2024-03-02T10:18:11;99586.21;;;11.58;59.16
11499;BME280;5806;48.748;9.278;2024-03-02T10:20:40;99586.19;;;11.83;58.98
11499;BME280;5806;48.748;9.278;2024-03-02T10:23:15;99575.52;;;11.76;58.07
11499;BME280;5806;48.748;9.278;2024-03-02T10:25:44;99588.41;;;11.81;57.89
11499;BME280;5806;48.748;9.278;2024-03-02T10:28:11;99578.25;;;11.89;58.13
11499;BME280;5806;48.748;9.278;2024-03-02T10:30:39;99581.47;;;12.06;57.76
11499;BME280;5806;48.748;9.278;2024-03-02T10:33:06;99576.25;;;12.07;57.18
11499;BME280;5806;48.748;9.278;2024-03-02T10:35:34;99566.41;;;12.03;56.98
11499;BME280;5806;48.748;9.278;2024-03-02T10:38:04;99566.36;;;12.13;57.48
11499;BME280;5806;48.748;9.278;2024-03-02T10:40:32;99567.70;;;12.23;56.94
11499;BME280;5806;48.748;9.278;2024-03-02T10:43:01;99557.03;;;12.19;57.72
11499;BME280;5806;48.748;9.278;2024-03-02T10:45:29;99560.84;;;12.26;56.80
11499;BME280;5806;48.748;9.278;2024-03-02T10:47:57;99557.52;;;12.26;56.50
11499;BME280;5806;48.748;9.278;2024-03-02T10:50:25;99555.37;;;12.23;56.17
11499;BME280;5806;48.748;9.278;2024-03-02T10:52:52;99552.56;;;12.33;57.17
11499;BME280;5806;48.748;9.278;2024-03-02T10:55:20;99554.23;;;12.29;55.77
11499;BME280;5806;48.748;9.278;2024-03-02T10:57:54;99562.42;;;12.34;56.04
11499;BME280;5806;48.748;9.278;2024-03-02T11:00:24;99545.98;;;12.32;55.58
11499;BME280;5806;48.748;9.278;2024-03-02T11:03:02;99541.56;;;12.43;55.95
11499;BME280;5806;48.748;9.278;2024-03-02T11:05:28;99539.36;;;12.43;55.67
11499;BME280;5806;48.748;9.278;2024-03-02T11:08:11;99550.86;;;12.47;55.66
11499;BME280;5806;48.748;9.278;2024-03-02T11:10:40;99542.80;;;12.61;55.99
11499;BME280;5806;48.748;9.278;2024-03-02T11:13:15;99551.20;;;12.79;55.74
11499;BME280;5806;48.748;9.278;2024-03-02T11:15:42;99553.47;;;12.65;54.99
11499;BME280;5806;48.748;9.278;2024-03-02T11:18:11;99540.84;;;12.66;55.79
11499;BME280;5806;48.748;9.278;2024-03-02T11:20:39;99548.52;;;12.69;55.31
11499;BME280;5806;48.748;9.278;2024-03-02T11:23:08;99540.59;;;12.65;55.53
11499;BME280;5806;48.748;9.278;2024-03-02T11:25:36;99539.98;;;12.73;55.09
11499;BME280;5806;48.748;9.278;2024-03-02T11:28:06;99546.52;;;12.80;55.81
11499;BME280;5806;48.748;9.278;2024-03-02T11:33:08;99546.03;;;12.70;55.86
11499;BME280;5806;48.748;9.278;2024-03-02T11:35:37;99542.05;;;12.89;55.53
11499;BME280;5806;48.748;9.278;2024-03-02T11:38:05;99547.27;;;12.90;55.28
11499;BME280;5806;48.748;9.278;2024-03-02T11:40:33;99542.70;;;12.76;55.74
11499;BME280;5806;48.748;9.278;2024-03-02T11:43:01;99542.64;;;12.83;55.01
11499;BME280;5806;48.748;9.278;2024-03-02T11:45:29;99548.78;;;12.70;55.40
11499;BME280;5806;48.748;9.278;2024-03-02T11:47:58;99538.36;;;12.72;55.10
11499;BME280;5806;48.748;9.278;2024-03-02T11:50:33;99542.75;;;12.71;55.93
11499;BME280;5806;48.748;9.278;2024-03-02T11:53:00;99535.36;;;12.66;55.19
11499;BME280;5806;48.748;9.278;2024-03-02T11:55:28;99543.78;;;12.80;55.38
11499;BME280;5806;48.748;9.278;2024-03-02T11:57:57;99538.66;;;12.68;56.21
11499;BME280;5806;48.748;9.278;2024-03-02T12:00:26;99536.19;;;12.67;55.62
11499;BME280;5806;48.748;9.278;2024-03-02T12:03:05;99527.92;;;12.72;55.57
11499;BME280;5806;48.748;9.278;2024-03-02T12:05:33;99534.50;;;12.73;56.11
11499;BME280;5806;48.748;9.278;2024-03-02T12:08:02;99529.31;;;12.69;55.85
11499;BME280;5806;48.748;9.278;2024-03-02T12:10:31;99525.94;;;12.80;55.91
11499;BME280;5806;48.748;9.278;2024-03-02T12:13:00;99521.75;;;12.92;55.58
11499;BME280;5806;48.748;9.278;2024-03-02T12:15:29;99523.61;;;12.97;55.80
11499;BME280;5806;48.748;9.278;2024-03-02T12:17:59;99517.17;;;12.80;55.58
11499;BME280;5806;48.748;9.278;2024-03-02T12:20:29;99515.45;;;12.89;55.48
11499;BME280;5806;48.748;9.278;2024-03-02T12:22:59;99514.87;;;12.97;56.06
11499;BME280;5806;48.748;9.278;2024-03-02T12:25:27;99509.07;;;13.01;56.04
11499;BME280;5806;48.748;9.278;2024-03-02T12:27:56;99518.58;;;13.11;56.08
11499;BME280;5806;48.748;9.278;2024-03-02T12:30:24;99502.23;;;12.96;56.14
11499;BME280;5806;48.748;9.278;2024-03-02T12:32:53;99507.65;;;13.06;57.06
11499;BME280;5806;48.748;9.278;2024-03-02T12:35:20;99505.34;;;13.18;55.48
11499;BME280;5806;48.748;9.278;2024-03-02T12:37:49;99501.33;;;13.08;56.03
11499;BME280;5806;48.748;9.278;2024-03-02T12:40:18;99485.02;;;13.19;56.03
11499;BME280;5806;48.748;9.278;2024-03-02T12:42:47;99490.53;;;13.17;55.27
11499;BME280;5806;48.748;9.278;2024-03-02T12:45:16;99492.34;;;13.00;55.62
11499;BME280;5806;48.748;9.278;2024-03-02T12:47:45;99487.30;;;13.12;56.09
11499;BME280;5806;48.748;9.278;2024-03-02T12:50:13;99488.56;;;13.22;55.20
11499;BME280;5806;48.748;9.278;2024-03-02T12:52:40;99487.81;;;13.43;55.12
11499;BME280;5806;48.748;9.278;2024-03-02T12:55:08;99477.00;;;13.25;55.40
11499;BME280;5806;48.748;9.278;2024-03-02T12:57:35;99475.74;;;13.13;55.29
11499;BME280;5806;48.748;9.278;2024-03-02T13:00:05;99471.47;;;12.99;55.68
11499;BME280;5806;48.748;9.278;2024-03-02T13:02:36;99459.38;;;13.03;55.33
11499;BME280;5806;48.748;9.278;2024-03-02T13:05:07;99469.70;;;13.13;55.75
11499;BME280;5806;48.748;9.278;2024-03-02T13:07:42;99459.92;;;13.31;55.24
11499;BME280;5806;48.748;9.278;2024-03-02T13:10:06;99456.70;;;13.24;54.66
11499;BME280;5806;48.748;9.278;2024-03-02T13:12:36;99463.77;;;13.32;55.04
11499;BME280;5806;48.748;9.278;2024-03-02T13:15:04;99458.81;;;13.32;54.88
11499;BME280;5806;48.748;9.278;2024-03-02T13:17:34;99468.11;;;13.36;54.45
11499;BME280;5806;48.748;9.278;2024-03-02T13:20:01;99466.03;;;13.49;54.95
11499;BME280;5806;48.748;9.278;2024-03-02T13:22:30;99461.72;;;13.43;54.44
11499;BME280;5806;48.748;9.278;2024-03-02T13:24:58;99460.98;;;13.58;53.62
11499;BME280;5806;48.748;9.278;2024-03-02T13:27:27;99458.65;;;13.70;54.11